^^
Saratoga-Weather Station Historical Data
Daily Summary for January 25, 2022 Units:  English    Metric   Both
Daily Weekly Monthly Yearly Custom
  High: Low: Average:
Temperature: 32.4 °F 28.9 °F 30.6 °F
Dew Point: 31.6 °F 27.7 °F 29.7 °F
Humidity: 97% 94% 96%
Wind Speed: 4mph 0mph 0.6mph
Wind Gust: 5mph - -
Wind- - SSE
Pressure: 30.5 in 30.5 in -
Precipitation: 0 in    
Historical Graphs
 
 
Tabular Data for January 25, 2022
Time Temperature Dew Point Pressure Wind Wind Speed Wind Gust Humidity Rainfall Rate (Hourly) solar
00:04 30.4 °F 29.1 °F 30.5 in Calm     95% 0 in 0 W/m2
00:09 30.2 °F 28.9 °F 30.5 in Calm     95% 0 in 0 W/m2
00:14 30 °F 28.6 °F 30.5 in Calm     94% 0 in 0 W/m2
00:19 30 °F 28.8 °F 30.5 in Calm     95% 0 in 0 W/m2
00:24 30.2 °F 28.9 °F 30.5 in Calm     95% 0 in 0 W/m2
00:29 30.2 °F 28.9 °F 30.5 in Calm     95% 0 in 0 W/m2
00:34 30 °F 28.8 °F 30.5 in Calm     95% 0 in 0 W/m2
00:39 30 °F 28.8 °F 30.5 in Calm     95% 0 in 0 W/m2
00:44 29.8 °F 28.6 °F 30.5 in Calm     95% 0 in 0 W/m2
00:49 29.8 °F 28.6 °F 30.5 in Calm     95% 0 in 0 W/m2
00:54 29.8 °F 28.6 °F 30.5 in Calm     95% 0 in 0 W/m2
00:59 29.8 °F 28.6 °F 30.5 in Calm     95% 0 in 0 W/m2
01:04 29.8 °F 28.6 °F 30.5 in Calm     95% 0 in 0 W/m2
01:09 29.7 °F 28.4 °F 30.5 in Calm     95% 0 in 0 W/m2
01:14 29.5 °F 28.2 °F 30.5 in Calm     95% 0 in 0 W/m2
01:19 29.5 °F 28.2 °F 30.5 in Calm     95% 0 in 0 W/m2
01:24 29.3 °F 28 °F 30.5 in Calm     95% 0 in 0 W/m2
01:29 29.1 °F 27.9 °F 30.5 in Calm     95% 0 in 0 W/m2
01:34 29.1 °F 27.9 °F 30.5 in Calm     95% 0 in 0 W/m2
01:40 29.1 °F 27.9 °F 30.5 in Calm     95% 0 in 0 W/m2
01:45 29.1 °F 27.9 °F 30.5 in Calm     95% 0 in 0 W/m2
01:50 29.1 °F 27.9 °F 30.5 in Calm     95% 0 in 0 W/m2
01:55 29.1 °F 27.9 °F 30.5 in Calm     95% 0 in 0 W/m2
02:00 29.1 °F 27.9 °F 30.5 in Calm     95% 0 in 0 W/m2
02:05 29.3 °F 28 °F 30.5 in Calm     95% 0 in 0 W/m2
02:10 29.5 °F 28.2 °F 30.5 in Calm   1 mph 95% 0 in 0 W/m2
02:15 29.8 °F 28.6 °F 30.5 in Calm   1 mph 95% 0 in 0 W/m2
02:20 29.8 °F 28.6 °F 30.5 in Calm     95% 0 in 0 W/m2
02:25 29.8 °F 28.6 °F 30.5 in Calm   1 mph 95% 0 in 0 W/m2
02:30 29.8 °F 28.6 °F 30.5 in Calm     95% 0 in 0 W/m2
02:35 29.7 °F 28.4 °F 30.5 in Calm     95% 0 in 0 W/m2
02:40 29.5 °F 28.2 °F 30.5 in Calm     95% 0 in 0 W/m2
02:45 29.5 °F 28.2 °F 30.5 in Calm     95% 0 in 0 W/m2
02:50 29.3 °F 28 °F 30.5 in Calm     95% 0 in 0 W/m2
02:55 29.5 °F 28.2 °F 30.5 in Calm     95% 0 in 0 W/m2
03:00 29.5 °F 28.2 °F 30.5 in East 0.9 mph 2 mph 95% 0 in 0 W/m2
03:05 29.5 °F 28.2 °F 30.5 in Calm   1 mph 95% 0 in 0 W/m2
03:10 29.5 °F 28.2 °F 30.5 in Calm   2 mph 95% 0 in 0 W/m2
03:15 29.3 °F 28 °F 30.5 in Calm   1 mph 95% 0 in 0 W/m2
03:20 29.1 °F 27.9 °F 30.5 in ESE 0.9 mph 2 mph 95% 0 in 0 W/m2
03:25 29.1 °F 27.9 °F 30.5 in Calm   1 mph 95% 0 in 0 W/m2
03:30 29.1 °F 27.9 °F 30.5 in ESE 2 mph 3 mph 95% 0 in 0 W/m2
03:35 29.1 °F 27.9 °F 30.5 in ENE 2 mph 3 mph 95% 0 in 0 W/m2
03:40 29.1 °F 27.9 °F 30.5 in Calm   2 mph 95% 0 in 0 W/m2
03:45 28.9 °F 27.7 °F 30.5 in Calm     95% 0 in 0 W/m2
03:50 28.9 °F 27.7 °F 30.5 in Calm   1 mph 95% 0 in 0 W/m2
03:55 28.9 °F 27.7 °F 30.5 in East 2 mph 3 mph 95% 0 in 0 W/m2
04:00 28.9 °F 27.7 °F 30.5 in Calm   2 mph 95% 0 in 0 W/m2
04:05 28.9 °F 27.9 °F 30.5 in Calm   2 mph 96% 0 in 0 W/m2
04:10 28.9 °F 27.7 °F 30.5 in Calm     95% 0 in 0 W/m2
04:15 28.9 °F 27.9 °F 30.5 in East 0.9 mph 1 mph 96% 0 in 0 W/m2
04:20 29.1 °F 28 °F 30.5 in Calm   2 mph 96% 0 in 0 W/m2
04:25 29.1 °F 28 °F 30.5 in Calm   2 mph 96% 0 in 0 W/m2
04:30 29.1 °F 28 °F 30.5 in Calm   2 mph 96% 0 in 0 W/m2
04:35 29.1 °F 28 °F 30.5 in Calm   1 mph 96% 0 in 0 W/m2
04:40 29.1 °F 28 °F 30.5 in NE 0.9 mph 1 mph 96% 0 in 0 W/m2
04:45 29.3 °F 28.2 °F 30.5 in Calm   2 mph 96% 0 in 0 W/m2
04:50 29.5 °F 28.4 °F 30.5 in Calm   1 mph 96% 0 in 0 W/m2
04:55 29.5 °F 28.4 °F 30.5 in Calm   1 mph 96% 0 in 0 W/m2
05:00 29.5 °F 28.4 °F 30.5 in Calm     96% 0 in 0 W/m2
05:05 29.7 °F 28.6 °F 30.5 in Calm     96% 0 in 0 W/m2
05:10 29.7 °F 28.6 °F 30.5 in Calm   1 mph 96% 0 in 0 W/m2
05:15 29.7 °F 28.6 °F 30.5 in North 0.9 mph 2 mph 96% 0 in 0 W/m2
05:20 29.7 °F 28.6 °F 30.5 in Calm     96% 0 in 0 W/m2
05:25 29.7 °F 28.6 °F 30.5 in Calm   2 mph 96% 0 in 0 W/m2
05:30 29.7 °F 28.6 °F 30.5 in East 2 mph 2 mph 96% 0 in 0 W/m2
05:35 29.7 °F 28.6 °F 30.5 in Calm     96% 0 in 0 W/m2
05:40 29.7 °F 28.6 °F 30.5 in ESE 0.9 mph 1 mph 96% 0 in 0 W/m2
05:45 29.7 °F 28.6 °F 30.5 in ENE 0.9 mph 2 mph 96% 0 in 0 W/m2
05:50 29.7 °F 28.6 °F 30.5 in Calm   1 mph 96% 0 in 0 W/m2
05:55 29.7 °F 28.6 °F 30.5 in Calm     96% 0 in 0 W/m2
06:00 29.7 °F 28.6 °F 30.5 in Calm   1 mph 96% 0 in 0 W/m2
06:05 29.7 °F 28.6 °F 30.5 in NE 2 mph 2 mph 96% 0 in 0 W/m2
06:10 29.7 °F 28.6 °F 30.5 in Calm   1 mph 96% 0 in 0 W/m2
06:16 29.7 °F 28.6 °F 30.5 in Calm   1 mph 96% 0 in 0 W/m2
06:21 29.7 °F 28.6 °F 30.5 in NE 0.9 mph 1 mph 96% 0 in 0 W/m2
06:26 29.7 °F 28.6 °F 30.5 in NE 2 mph 2 mph 96% 0 in 0 W/m2
06:31 29.7 °F 28.6 °F 30.5 in Calm   1 mph 96% 0 in 0 W/m2
06:36 29.7 °F 28.6 °F 30.5 in Calm     96% 0 in 0 W/m2
06:41 29.7 °F 28.6 °F 30.5 in East 2 mph 2 mph 96% 0 in 0 W/m2
06:46 29.8 °F 28.8 °F 30.5 in NE 0.9 mph 2 mph 96% 0 in 0 W/m2
06:51 29.8 °F 28.8 °F 30.5 in East 0.9 mph 2 mph 96% 0 in 0 W/m2
06:56 29.7 °F 28.6 °F 30.5 in Calm     96% 0 in 0 W/m2
07:01 29.7 °F 28.6 °F 30.5 in Calm   1 mph 96% 0 in 0 W/m2
07:06 29.7 °F 28.6 °F 30.5 in ESE 0.9 mph 3 mph 96% 0 in 0 W/m2
07:11 29.5 °F 28.4 °F 30.5 in Calm   1 mph 96% 0 in 0 W/m2
07:16 29.5 °F 28.4 °F 30.5 in Calm   1 mph 96% 0 in 0 W/m2
07:21 29.5 °F 28.4 °F 30.5 in Calm   1 mph 96% 0 in 0 W/m2
07:26 29.5 °F 28.4 °F 30.5 in ENE 0.9 mph 2 mph 96% 0 in 0 W/m2
07:31 29.5 °F 28.4 °F 30.5 in Calm   2 mph 96% 0 in 0 W/m2
07:36 29.5 °F 28.4 °F 30.5 in Calm   1 mph 96% 0 in 0 W/m2
07:41 29.5 °F 28.4 °F 30.5 in Calm     96% 0 in 0 W/m2
07:46 29.7 °F 28.6 °F 30.5 in NE 0.9 mph 2 mph 96% 0 in 0 W/m2
07:51 29.7 °F 28.6 °F 30.5 in Calm   2 mph 96% 0 in 0 W/m2
07:56 29.7 °F 28.6 °F 30.5 in Calm     96% 0 in 0 W/m2
08:01 29.7 °F 28.6 °F 30.5 in Calm   2 mph 96% 0 in 0 W/m2
08:06 29.7 °F 28.6 °F 30.5 in Calm     96% 0 in 0 W/m2
08:11 29.7 °F 28.6 °F 30.5 in Calm   1 mph 96% 0 in 0 W/m2
08:16 29.8 °F 28.8 °F 30.5 in Calm   1 mph 96% 0 in 0 W/m2
08:21 29.7 °F 28.6 °F 30.5 in Calm     96% 0 in 0 W/m2
08:26 29.7 °F 28.6 °F 30.5 in Calm   1 mph 96% 0 in 0 W/m2
08:31 29.8 °F 28.8 °F 30.5 in Calm     96% 0 in 0 W/m2
08:36 29.7 °F 28.6 °F 30.5 in Calm   2 mph 96% 0 in 5 W/m2
08:41 29.7 °F 28.6 °F 30.5 in Calm   1 mph 96% 0 in 5 W/m2
08:46 29.7 °F 28.6 °F 30.5 in Calm     96% 0 in 7 W/m2
08:51 29.7 °F 28.6 °F 30.5 in Calm     96% 0 in 9 W/m2
08:56 29.7 °F 28.6 °F 30.5 in Calm     96% 0 in 11 W/m2
09:01 29.7 °F 28.6 °F 30.5 in Calm     96% 0 in 12 W/m2
09:06 29.7 °F 28.6 °F 30.5 in Calm     96% 0 in 12 W/m2
09:11 29.7 °F 28.6 °F 30.5 in Calm     96% 0 in 16 W/m2
09:16 29.8 °F 28.8 °F 30.5 in NE 0.9 mph 1 mph 96% 0 in 18 W/m2
09:21 29.8 °F 28.8 °F 30.5 in NE 0.9 mph 2 mph 96% 0 in 18 W/m2
09:26 29.8 °F 28.8 °F 30.5 in Calm     96% 0 in 21 W/m2
09:31 30 °F 28.9 °F 30.5 in Calm   1 mph 96% 0 in 23 W/m2
09:36 30 °F 28.9 °F 30.5 in North 0.9 mph 2 mph 96% 0 in 23 W/m2
09:41 30 °F 28.9 °F 30.5 in Calm   1 mph 96% 0 in 23 W/m2
09:46 30 °F 28.9 °F 30.5 in Calm   1 mph 96% 0 in 26 W/m2
09:51 30 °F 28.9 °F 30.5 in NNE 0.9 mph 2 mph 96% 0 in 30 W/m2
09:56 30 °F 28.9 °F 30.5 in Calm     96% 0 in 33 W/m2
10:01 30.2 °F 29.1 °F 30.5 in Calm   2 mph 96% 0 in 33 W/m2
10:06 30.2 °F 29.1 °F 30.5 in Calm   2 mph 96% 0 in 33 W/m2
10:11 30.4 °F 29.7 °F 30.5 in Calm   1 mph 97% 0 in 37 W/m2
10:16 30.4 °F 29.7 °F 30.5 in ENE 0.9 mph 2 mph 97% 0 in 40 W/m2
10:21 30.4 °F 29.7 °F 30.5 in Calm   2 mph 97% 0 in 42 W/m2
10:26 30.4 °F 29.7 °F 30.5 in Calm     97% 0 in 39 W/m2
10:31 30.4 °F 29.7 °F 30.5 in Calm   2 mph 97% 0 in 42 W/m2
10:36 30.4 °F 29.3 °F 30.5 in Calm     96% 0 in 46 W/m2
10:41 30.4 °F 29.7 °F 30.5 in Calm     97% 0 in 47 W/m2
10:46 30.6 °F 29.8 °F 30.5 in Calm   1 mph 97% 0 in 49 W/m2
10:51 30.6 °F 29.8 °F 30.5 in Calm     97% 0 in 54 W/m2
10:56 30.6 °F 29.5 °F 30.5 in Calm   1 mph 96% 0 in 51 W/m2
11:01 30.7 °F 29.7 °F 30.5 in Calm     96% 0 in 49 W/m2
11:06 30.7 °F 29.7 °F 30.5 in ENE 0.9 mph 1 mph 96% 0 in 56 W/m2
11:11 30.7 °F 29.7 °F 30.5 in Calm     96% 0 in 56 W/m2
11:16 30.7 °F 29.7 °F 30.5 in Calm     96% 0 in 62 W/m2
11:21 30.9 °F 30.2 °F 30.5 in ENE 0.9 mph 2 mph 97% 0 in 70 W/m2
11:26 30.9 °F 30.2 °F 30.5 in East 0.9 mph 3 mph 97% 0 in 79 W/m2
11:31 30.9 °F 30.2 °F 30.5 in ESE 2 mph 4 mph 97% 0 in 81 W/m2
11:36 30.9 °F 30.2 °F 30.5 in ESE 0.9 mph 2 mph 97% 0 in 79 W/m2
11:41 30.9 °F 30.2 °F 30.5 in ESE 0.9 mph 4 mph 97% 0 in 76 W/m2
11:46 30.9 °F 30.2 °F 30.5 in Calm   2 mph 97% 0 in 77 W/m2
11:51 30.9 °F 30.2 °F 30.5 in Calm     97% 0 in 76 W/m2
11:56 31.1 °F 30.4 °F 30.5 in ESE 0.9 mph 2 mph 97% 0 in 77 W/m2
12:01 31.3 °F 30.6 °F 30.5 in ESE 2 mph 2 mph 97% 0 in 76 W/m2
12:06 31.3 °F 30.6 °F 30.5 in ESE 2 mph 3 mph 97% 0 in 72 W/m2
12:11 31.3 °F 30.6 °F 30.5 in Calm     97% 0 in 74 W/m2
12:17 31.3 °F 30.6 °F 30.5 in Calm     97% 0 in 70 W/m2
12:22 31.5 °F 30.7 °F 30.5 in East 2 mph 2 mph 97% 0 in 74 W/m2
12:27 31.5 °F 30.7 °F 30.5 in Calm     97% 0 in 74 W/m2
12:32 31.5 °F 30.7 °F 30.5 in Calm   3 mph 97% 0 in 69 W/m2
12:37 31.6 °F 30.9 °F 30.5 in East 0.9 mph 3 mph 97% 0 in 69 W/m2
12:42 31.5 °F 30.7 °F 30.5 in Calm   1 mph 97% 0 in 70 W/m2
12:47 31.5 °F 30.7 °F 30.5 in ENE 0.9 mph 1 mph 97% 0 in 69 W/m2
12:52 31.6 °F 30.9 °F 30.5 in ESE 0.9 mph 2 mph 97% 0 in 70 W/m2
12:57 31.6 °F 30.9 °F 30.5 in ESE 0.9 mph 2 mph 97% 0 in 69 W/m2
13:02 31.6 °F 30.9 °F 30.5 in Calm     97% 0 in 70 W/m2
13:07 31.6 °F 30.9 °F 30.5 in Calm     97% 0 in 69 W/m2
13:12 31.6 °F 30.9 °F 30.5 in Calm   1 mph 97% 0 in 69 W/m2
13:17 31.6 °F 30.9 °F 30.5 in Calm     97% 0 in 69 W/m2
13:22 31.8 °F 31.1 °F 30.5 in ESE 2 mph 2 mph 97% 0 in 69 W/m2
13:27 31.8 °F 31.1 °F 30.5 in ESE 2 mph 3 mph 97% 0 in 74 W/m2
13:32 31.8 °F 31.1 °F 30.5 in Calm   1 mph 97% 0 in 69 W/m2
13:37 31.8 °F 31.1 °F 30.5 in Calm   1 mph 97% 0 in 65 W/m2
13:42 31.8 °F 31.1 °F 30.5 in ESE 0.9 mph 2 mph 97% 0 in 63 W/m2
13:47 31.8 °F 31.1 °F 30.5 in Calm     97% 0 in 54 W/m2
13:52 32 °F 31.3 °F 30.5 in Calm   2 mph 97% 0 in 51 W/m2
13:57 32 °F 31.3 °F 30.5 in ENE 3 mph 3 mph 97% 0 in 53 W/m2
14:02 32 °F 31.3 °F 30.5 in Calm   1 mph 97% 0 in 49 W/m2
14:07 32 °F 31.3 °F 30.5 in Calm   1 mph 97% 0 in 51 W/m2
14:12 32 °F 31.3 °F 30.5 in Calm   3 mph 97% 0 in 49 W/m2
14:17 31.8 °F 31.1 °F 30.5 in ENE 0.9 mph 2 mph 97% 0 in 49 W/m2
14:22 31.8 °F 31.1 °F 30.5 in ENE 2 mph 3 mph 97% 0 in 46 W/m2
14:27 32 °F 31.3 °F 30.5 in Calm   2 mph 97% 0 in 49 W/m2
14:32 32 °F 31.3 °F 30.5 in Calm   1 mph 97% 0 in 51 W/m2
14:37 32.2 °F 31.5 °F 30.5 in ENE 0.9 mph 2 mph 97% 0 in 53 W/m2
14:42 32.2 °F 31.5 °F 30.5 in Calm     97% 0 in 53 W/m2
14:47 32.2 °F 31.5 °F 30.5 in Calm   2 mph 97% 0 in 51 W/m2
14:52 32.2 °F 31.5 °F 30.5 in Calm   1 mph 97% 0 in 49 W/m2
14:57 32.2 °F 31.5 °F 30.5 in ENE 2 mph 2 mph 97% 0 in 46 W/m2
15:02 32.2 °F 31.5 °F 30.5 in Calm     97% 0 in 49 W/m2
15:07 32.2 °F 31.5 °F 30.5 in Calm     97% 0 in 42 W/m2
15:12 32.2 °F 31.5 °F 30.5 in Calm     97% 0 in 37 W/m2
15:17 32.2 °F 31.5 °F 30.5 in Calm   1 mph 97% 0 in 39 W/m2
15:22 32.4 °F 31.6 °F 30.5 in Calm     97% 0 in 37 W/m2
15:27 32.4 °F 31.6 °F 30.5 in SE 0.9 mph 2 mph 97% 0 in 33 W/m2
15:32 32.4 °F 31.6 °F 30.5 in Calm     97% 0 in 30 W/m2
15:37 32.4 °F 31.6 °F 30.5 in SE 2 mph 2 mph 97% 0 in 26 W/m2
15:42 32.4 °F 31.6 °F 30.5 in Calm   1 mph 97% 0 in 23 W/m2
15:47 32.4 °F 31.6 °F 30.5 in East 0.9 mph 2 mph 97% 0 in 25 W/m2
15:52 32.4 °F 31.6 °F 30.5 in ENE 0.9 mph 3 mph 97% 0 in 23 W/m2
15:57 32.2 °F 31.5 °F 30.5 in ENE 0.9 mph 2 mph 97% 0 in 21 W/m2
16:02 32.2 °F 31.5 °F 30.5 in Calm     97% 0 in 21 W/m2
16:07 32.2 °F 31.5 °F 30.5 in NE 0.9 mph 1 mph 97% 0 in 18 W/m2
16:12 32.2 °F 31.5 °F 30.5 in Calm     97% 0 in 16 W/m2
16:17 32.2 °F 31.5 °F 30.5 in Calm     97% 0 in 16 W/m2
16:22 32.2 °F 31.5 °F 30.5 in NE 2.9 mph 3 mph 97% 0 in 14 W/m2
16:27 32 °F 31.3 °F 30.5 in NE 0.9 mph 2 mph 97% 0 in 12 W/m2
16:32 31.8 °F 31.1 °F 30.5 in ENE 0.9 mph 3 mph 97% 0 in 11 W/m2
16:37 31.8 °F 31.1 °F 30.5 in ENE 2 mph 3 mph 97% 0 in 9 W/m2
16:42 31.6 °F 30.9 °F 30.5 in ENE 2 mph 3 mph 97% 0 in 7 W/m2
16:48 31.6 °F 30.9 °F 30.5 in East 2 mph 4 mph 97% 0 in 7 W/m2
16:53 31.6 °F 30.9 °F 30.5 in ESE 2 mph 3 mph 97% 0 in 5 W/m2
16:58 31.6 °F 30.9 °F 30.5 in East 0.9 mph 4 mph 97% 0 in 5 W/m2
17:03 31.5 °F 30.7 °F 30.5 in Calm   2 mph 97% 0 in 0 W/m2
17:08 31.5 °F 30.7 °F 30.5 in Calm   2 mph 97% 0 in 0 W/m2
17:13 31.5 °F 30.7 °F 30.5 in ESE 0.9 mph 2 mph 97% 0 in 0 W/m2
17:18 31.3 °F 30.6 °F 30.5 in Calm     97% 0 in 0 W/m2
17:23 31.3 °F 30.6 °F 30.5 in Calm     97% 0 in 0 W/m2
17:28 31.3 °F 30.6 °F 30.5 in Calm     97% 0 in 0 W/m2
17:33 31.3 °F 30.6 °F 30.5 in ESE 0.9 mph 2 mph 97% 0 in 0 W/m2
17:38 31.3 °F 30.6 °F 30.5 in Calm   3 mph 97% 0 in 0 W/m2
17:43 31.3 °F 30.6 °F 30.5 in Calm     97% 0 in 0 W/m2
17:48 31.3 °F 30.6 °F 30.5 in ENE 0.9 mph 3 mph 97% 0 in 0 W/m2
17:53 31.1 °F 30.4 °F 30.5 in Calm   1 mph 97% 0 in 0 W/m2
17:58 31.3 °F 30.6 °F 30.5 in Calm     97% 0 in 0 W/m2
18:03 31.3 °F 30.6 °F 30.5 in ENE 2 mph 2 mph 97% 0 in 0 W/m2
18:08 31.3 °F 30.6 °F 30.5 in Calm     97% 0 in 0 W/m2
18:13 31.3 °F 30.6 °F 30.5 in East 2.9 mph 3 mph 97% 0 in 0 W/m2
18:18 31.3 °F 30.6 °F 30.5 in East 0.9 mph 2 mph 97% 0 in 0 W/m2
18:23 31.3 °F 30.6 °F 30.5 in ENE 0.9 mph 2 mph 97% 0 in 0 W/m2
18:28 31.3 °F 30.6 °F 30.5 in Calm     97% 0 in 0 W/m2
18:33 31.3 °F 30.6 °F 30.5 in Calm   1 mph 97% 0 in 0 W/m2
18:38 31.3 °F 30.6 °F 30.5 in East 0.9 mph 2 mph 97% 0 in 0 W/m2
18:43 31.3 °F 30.6 °F 30.5 in Calm   3 mph 97% 0 in 0 W/m2
18:48 31.3 °F 30.6 °F 30.5 in East 0.9 mph 2 mph 97% 0 in 0 W/m2
18:53 31.3 °F 30.6 °F 30.5 in East 0.9 mph 4 mph 97% 0 in 0 W/m2
18:58 31.3 °F 30.6 °F 30.5 in SE 0.9 mph 3 mph 97% 0 in 0 W/m2
19:03 31.1 °F 30.4 °F 30.5 in Calm   2 mph 97% 0 in 0 W/m2
19:08 30.9 °F 30.2 °F 30.5 in East 0.9 mph 2 mph 97% 0 in 0 W/m2
19:13 30.9 °F 30.2 °F 30.5 in Calm   3 mph 97% 0 in 0 W/m2
19:18 30.9 °F 30.2 °F 30.5 in SE 0.9 mph 1 mph 97% 0 in 0 W/m2
19:23 30.9 °F 30.2 °F 30.5 in Calm   3 mph 97% 0 in 0 W/m2
19:28 30.9 °F 30.2 °F 30.5 in Calm     97% 0 in 0 W/m2
19:33 30.9 °F 30.2 °F 30.5 in Calm     97% 0 in 0 W/m2
19:38 30.9 °F 30.2 °F 30.5 in Calm   1 mph 97% 0 in 0 W/m2
19:43 30.9 °F 30.2 °F 30.5 in SW 0.9 mph 1 mph 97% 0 in 0 W/m2
19:48 30.9 °F 30.2 °F 30.5 in Calm     97% 0 in 0 W/m2
19:53 30.9 °F 30.2 °F 30.5 in Calm     97% 0 in 0 W/m2
19:58 30.9 °F 30.2 °F 30.5 in Calm   1 mph 97% 0 in 0 W/m2
20:03 30.9 °F 30.2 °F 30.5 in Calm   2 mph 97% 0 in 0 W/m2
20:08 30.9 °F 30.2 °F 30.5 in ENE 0.9 mph 1 mph 97% 0 in 0 W/m2
20:13 30.9 °F 30.2 °F 30.5 in SE 2 mph 2 mph 97% 0 in 0 W/m2
20:18 30.9 °F 30.2 °F 30.5 in Calm   2 mph 97% 0 in 0 W/m2
20:23 30.9 °F 30.2 °F 30.5 in Calm     97% 0 in 0 W/m2
20:28 30.9 °F 30.2 °F 30.5 in SW 2 mph 2 mph 97% 0 in 0 W/m2
20:33 30.7 °F 30 °F 30.5 in WSW 0.9 mph 2 mph 97% 0 in 0 W/m2
20:38 30.7 °F 30 °F 30.5 in West 0.9 mph 1 mph 97% 0 in 0 W/m2
20:43 30.7 °F 30 °F 30.5 in Calm   1 mph 97% 0 in 0 W/m2
20:48 30.7 °F 30 °F 30.5 in Calm     97% 0 in 0 W/m2
20:53 30.7 °F 30 °F 30.5 in Calm     97% 0 in 0 W/m2
20:58 30.7 °F 30 °F 30.5 in WNW 2.9 mph 3 mph 97% 0 in 0 W/m2
21:03 30.7 °F 30 °F 30.5 in West 0.9 mph 2 mph 97% 0 in 0 W/m2
21:08 30.7 °F 30 °F 30.5 in Calm   1 mph 97% 0 in 0 W/m2
21:13 30.7 °F 30 °F 30.5 in Calm   2 mph 97% 0 in 0 W/m2
21:18 30.7 °F 30 °F 30.5 in WNW 2 mph 2 mph 97% 0 in 0 W/m2
21:23 30.7 °F 30 °F 30.5 in West 2 mph 2 mph 97% 0 in 0 W/m2
21:28 30.6 °F 29.8 °F 30.5 in WNW 2.9 mph 3 mph 97% 0 in 0 W/m2
21:33 30.6 °F 29.8 °F 30.5 in West 0.9 mph 3 mph 97% 0 in 0 W/m2
21:38 30.6 °F 29.8 °F 30.5 in WNW 2 mph 4 mph 97% 0 in 0 W/m2
21:43 30.6 °F 29.8 °F 30.5 in WNW 0.9 mph 2 mph 97% 0 in 0 W/m2
21:48 30.6 °F 29.8 °F 30.5 in West 4 mph 4 mph 97% 0 in 0 W/m2
21:53 30.6 °F 29.8 °F 30.5 in Calm   2 mph 97% 0 in 0 W/m2
21:58 30.6 °F 29.8 °F 30.5 in WNW 0.9 mph 2 mph 97% 0 in 0 W/m2
22:03 30.6 °F 29.8 °F 30.5 in NW 0.9 mph 2 mph 97% 0 in 0 W/m2
22:08 30.7 °F 30 °F 30.5 in WNW 0.9 mph 5 mph 97% 0 in 0 W/m2
22:13 30.6 °F 29.8 °F 30.5 in NW 2 mph 3 mph 97% 0 in 0 W/m2
22:18 30.6 °F 29.8 °F 30.5 in WNW 2 mph 4 mph 97% 0 in 0 W/m2
22:23 30.6 °F 29.8 °F 30.5 in West 0.9 mph 3 mph 97% 0 in 0 W/m2
22:28 30.6 °F 29.8 °F 30.5 in West 0.9 mph 2 mph 97% 0 in 0 W/m2
22:33 30.6 °F 29.8 °F 30.5 in Calm   2 mph 97% 0 in 0 W/m2
22:38 30.6 °F 29.8 °F 30.5 in West 2 mph 3 mph 97% 0 in 0 W/m2
22:43 30.4 °F 29.7 °F 30.5 in WSW 2.9 mph 4 mph 97% 0 in 0 W/m2
22:48 30.4 °F 29.7 °F 30.5 in WNW 0.9 mph 3 mph 97% 0 in 0 W/m2
22:53 30.4 °F 29.7 °F 30.5 in Calm   2 mph 97% 0 in 0 W/m2
22:58 30.4 °F 29.7 °F 30.5 in West 0.9 mph 3 mph 97% 0 in 0 W/m2
23:03 30.4 °F 29.7 °F 30.5 in West 2.9 mph 3 mph 97% 0 in 0 W/m2
23:08 30.4 °F 29.7 °F 30.5 in West 2 mph 3 mph 97% 0 in 0 W/m2
23:13 30.4 °F 29.7 °F 30.5 in West 0.9 mph 3 mph 97% 0 in 0 W/m2
23:18 30.4 °F 29.7 °F 30.5 in West 2.9 mph 4 mph 97% 0 in 0 W/m2
23:23 30.4 °F 29.7 °F 30.5 in West 2 mph 4 mph 97% 0 in 0 W/m2
23:28 30.4 °F 29.7 °F 30.5 in WSW 2.9 mph 4 mph 97% 0 in 0 W/m2
23:33 30.2 °F 29.5 °F 30.5 in West 2 mph 4 mph 97% 0 in 0 W/m2
23:38 30 °F 29.3 °F 30.5 in West 0.9 mph 2 mph 97% 0 in 0 W/m2
23:43 30 °F 29.3 °F 30.5 in West 2 mph 3 mph 97% 0 in 0 W/m2
23:48 30 °F 29.3 °F 30.5 in WNW 0.9 mph 3 mph 97% 0 in 0 W/m2
23:53 30 °F 29.3 °F 30.5 in West 2 mph 3 mph 97% 0 in 0 W/m2
23:58 30 °F 29.3 °F 30.5 in West 2 mph 3 mph 97% 0 in 0 W/m2
Juneau County Weather
Compliments of Weather Underground - 4 mb